Kingston, GA (30145)

01:51 PM EDT em 30 de Setembro de 2014 (GMT -0400)
Cartersville | Change Station
CLOSE
Current Station
Aeroporto
Location: Cartersville,
Altitude: 764 ft
Estações Meteorológicas Próximas

Elev 764 ft 34.12 °N, 84.85 °W | Updated 58 minutes ago

Céu Limpo
Céu Limpo
78 °F
Aparente 78 °F
N
5
Vento Variável Vento de NNE

Hoje
Máxima -- | Mínima -- °F
--% Possibilidade de Precip.
Ontem
Máxima -- | Mínima -- °F
Precip. -- pol
7:33 AM 7:25 PM
Quarto crescente, 38% visible
Pressão 29.94 pol
Visibilidade 10.0 milhas
Nuvens Poucas 2600 ft
Ponto de Orvalho 62 °F
Humidade 58%
Chuva 0.00 pol
Altura de Neve Não disponível
UV 7 em vez de 12
Pólen 6.70 em vez de 12
Ozono Boa
PM2.5 Boa
Flu Activity Não disponível
METAR KVPC 301653Z AUTO 02004KT 10SM FEW026 26/17 A2996 RMK AO2 SLP136 T02560167

More Conditions Fewer Conditions

Pressão 29.94 pol
Visibilidade 10.0 milhas
Nuvens Poucas 2600 ft
Ponto de Orvalho 62 °F
Humidade 58%
Chuva 0.00 pol
Altura de Neve Não disponível
UV 7 em vez de 12
Pólen 6.70 em vez de 12
Ozono Boa
PM2.5 Boa
Flu Activity Não disponível
METAR KVPC 301653Z AUTO 02004KT 10SM FEW026 26/17 A2996 RMK AO2 SLP136 T02560167

More Conditions Fewer Conditions

10-Day Weather Forecast

Almanac

Astronomia

Sep. 30, 2014 Nascer Pôr
Hora atual 07:33 EDT 19:25 EDT
Crepúsculo civil 07:08 EDT 19:50 EDT
Crepúsculo náutico 06:39 EDT 20:19 EDT
Crepúsculo astronómico 06:10 EDT 20:48 EDT
Lua 13:29 EDT Sem o pôr da Lua
Comprimento da luz visível 12h 41m
Duração do Dia
11h 51m
Tomorrow will be 2m 7s shorter.
Quarto crescente, 38% of the Moon is Illuminated
Hoje
Quarto crescente
Out 1
Quarto crescente
Out 8
Lua cheia
Out 15
Quarto minguante
Out 23
Nova

Extremos de Hoje

situação na parte mais alta situação na parte mais baixa

Community

WunderPhotos

Upload Photos

1,757,693 fotografias inseridas!

Nearby

Qualidade do Ar

  Qualidade do Ar Índice da Q.A. Poluente
Corrente Boa
PM2.5
Corrente Boa
OZONE
Terça-feira Boa
OZONE
Terça-feira Boa
PM2.5

Altura da Neve

Estação altura Altitude
Não há relatos de neve recente.

Actividade Sísmisca

Cidade Distância Mag. Hora & Data
Não há notícias de atividade sísmica recente perto de si.
Mínima magnitude apresentada é 2.5.

Temperaturas das Águas Costeiras

Local Temperatura
Não há estações a reportar dados

Estações Meteorológicas Próximas